Time;durP1;ratioP1;P1;durP2;ratioP2;P2;SDS_P1;SDS_P2;PMS_P1;PMS_P2;Temp;Humidity;BMP_temperature;BMP_pressure;BME280_temperature;BME280_humidity;BME280_pressure;Samples;Min_cycle;Max_cycle;Signal;HPM_P1;HPM_P2
2023/05/03 00:02:15;;;;;;;0.00;0.00;;;;;;;;;;4955472;28;20459;-86
2023/05/03 00:04:45;;;;;;;0.00;0.00;;;;;;;;;;4955399;29;20047;-86
2023/05/03 00:07:11;;;;;;;0.00;0.00;;;;;;;;;;4955697;29;20565;-86
2023/05/03 00:09:37;;;;;;;0.00;0.00;;;;;;;;;;4939545;29;20126;-86
2023/05/03 00:12:04;;;;;;;0.00;0.00;;;;;;;;;;4955051;29;20047;-86
2023/05/03 00:14:30;;;;;;;0.00;0.00;;;;;;;;;;4955417;28;20410;-86
2023/05/03 00:16:56;;;;;;;0.00;0.00;;;;;;;;;;4954558;28;20087;-87
2023/05/03 00:19:25;;;;;;;0.00;0.00;;;;;;;;;;4955277;29;20122;-86
2023/05/03 00:21:53;;;;;;;0.00;0.00;;;;;;;;;;4939108;29;20039;-86
2023/05/03 00:24:19;;;;;;;0.00;0.00;;;;;;;;;;4954807;28;20062;-86
2023/05/03 00:26:45;;;;;;;0.00;0.00;;;;;;;;;;4955179;29;20095;-87
2023/05/03 00:29:11;;;;;;;0.00;0.00;;;;;;;;;;4955239;29;20103;-87
2023/05/03 00:31:36;;;;;;;0.00;0.00;;;;;;;;;;4938897;29;20545;-86
2023/05/03 00:34:02;;;;;;;0.00;0.00;;;;;;;;;;4955129;28;20050;-86
2023/05/03 00:36:29;;;;;;;0.00;0.00;;;;;;;;;;4954827;29;20055;-87
2023/05/03 00:38:55;;;;;;;0.00;0.00;;;;;;;;;;4955256;29;20092;-86
2023/05/03 00:41:23;;;;;;;0.00;0.00;;;;;;;;;;4938857;29;20498;-86
2023/05/03 00:43:49;;;;;;;0.00;0.00;;;;;;;;;;4938782;29;20522;-86
2023/05/03 00:46:15;;;;;;;0.00;0.00;;;;;;;;;;4954545;29;20070;-86
2023/05/03 00:48:41;;;;;;;0.00;0.00;;;;;;;;;;4938891;29;20083;-86
2023/05/03 00:51:07;;;;;;;0.00;0.00;;;;;;;;;;4955169;29;20126;-86
2023/05/03 00:53:33;;;;;;;0.00;0.00;;;;;;;;;;4954931;28;20510;-87
2023/05/03 00:56:00;;;;;;;0.00;0.00;;;;;;;;;;4954569;29;20083;-86
2023/05/03 00:58:26;;;;;;;0.00;0.00;;;;;;;;;;4954665;28;20063;-87
2023/05/03 01:00:52;;;;;;;0.00;0.00;;;;;;;;;;4938602;29;20050;-86
2023/05/03 01:03:18;;;;;;;0.00;0.00;;;;;;;;;;4938530;29;20504;-86
2023/05/03 01:05:59;;;;;;;0.00;0.00;;;;;;;;;;4954262;29;20039;-88
2023/05/03 01:08:37;;;;;;;0.00;0.00;;;;;;;;;;4954624;29;20502;-87
2023/05/03 01:11:29;;;;;;;0.00;0.00;;;;;;;;;;4954380;29;20117;-87
2023/05/03 01:13:58;;;;;;;0.00;0.00;;;;;;;;;;4951440;28;20051;-86
2023/05/03 01:16:33;;;;;;;0.00;0.00;;;;;;;;;;4954053;29;20050;-86
2023/05/03 01:19:01;;;;;;;0.00;0.00;;;;;;;;;;4954227;29;20098;-86
2023/05/03 01:21:29;;;;;;;0.00;0.00;;;;;;;;;;4954186;29;20087;-86
2023/05/03 01:23:59;;;;;;;0.00;0.00;;;;;;;;;;4938039;29;20089;-86
2023/05/03 01:26:26;;;;;;;0.00;0.00;;;;;;;;;;4953794;29;20091;-86
2023/05/03 01:28:52;;;;;;;0.00;0.00;;;;;;;;;;4937670;29;20039;-86
2023/05/03 01:31:41;;;;;;;0.00;0.00;;;;;;;;;;4954311;29;20062;-86
2023/05/03 01:34:16;;;;;;;0.00;0.00;;;;;;;;;;4946355;28;20490;-86
2023/05/03 01:36:43;;;;;;;0.00;0.00;;;;;;;;;;4937613;29;20488;-86
2023/05/03 01:39:36;;;;;;;0.00;0.00;;;;;;;;;;4953864;29;20110;-86
2023/05/03 01:42:03;;;;;;;0.00;0.00;;;;;;;;;;4931799;29;20126;-86
2023/05/03 01:44:30;;;;;;;0.00;0.00;;;;;;;;;;4953549;28;20398;-85
2023/05/03 01:46:57;;;;;;;0.00;0.00;;;;;;;;;;4953613;29;20035;-87
2023/05/03 01:49:23;;;;;;;0.00;0.00;;;;;;;;;;4937992;29;20039;-87
2023/05/03 01:51:49;;;;;;;0.00;0.00;;;;;;;;;;4953708;29;20568;-87
2023/05/03 01:54:15;;;;;;;0.00;0.00;;;;;;;;;;4938116;29;20467;-87
2023/05/03 01:56:41;;;;;;;0.00;0.00;;;;;;;;;;4957616;28;20368;-86
2023/05/03 01:59:07;;;;;;;0.00;0.00;;;;;;;;;;4976162;28;20488;-86
2023/05/03 02:01:33;;;;;;;0.00;0.00;;;;;;;;;;4959943;28;20562;-86
2023/05/03 02:03:59;;;;;;;0.00;0.00;;;;;;;;;;4976464;28;20046;-87
2023/05/03 02:06:25;;;;;;;0.00;0.00;;;;;;;;;;4975503;28;20034;-86
2023/05/03 02:08:52;;;;;;;0.00;0.00;;;;;;;;;;4976123;28;20046;-86
2023/05/03 02:11:18;;;;;;;0.00;0.00;;;;;;;;;;4975571;28;20502;-86
2023/05/03 02:13:44;;;;;;;0.00;0.00;;;;;;;;;;4959509;28;20049;-86
2023/05/03 02:16:10;;;;;;;0.20;0.05;;;;;;;;;;4975676;28;20410;-86
2023/05/03 02:18:36;;;;;;;0.00;0.00;;;;;;;;;;4959892;28;20129;-86
2023/05/03 02:21:03;;;;;;;0.00;0.00;;;;;;;;;;4959753;28;20124;-87
2023/05/03 02:23:29;;;;;;;0.00;0.00;;;;;;;;;;4975455;28;20081;-87
2023/05/03 02:25:55;;;;;;;0.00;0.00;;;;;;;;;;4960120;28;20073;-86
2023/05/03 02:28:21;;;;;;;0.00;0.00;;;;;;;;;;4975494;28;20049;-86
2023/05/03 02:30:47;;;;;;;0.00;0.00;;;;;;;;;;4975772;28;20398;-86
2023/05/03 02:33:14;;;;;;;0.00;0.00;;;;;;;;;;4975835;28;20065;-86
2023/05/03 02:35:40;;;;;;;0.00;0.00;;;;;;;;;;4959760;28;20050;-87
2023/05/03 02:38:06;;;;;;;0.00;0.00;;;;;;;;;;4959508;28;20133;-87
2023/05/03 02:40:32;;;;;;;0.00;0.00;;;;;;;;;;4980134;28;20425;-86
2023/05/03 02:42:58;;;;;;;0.00;0.00;;;;;;;;;;4963201;28;20049;-86
2023/05/03 02:45:24;;;;;;;0.00;0.00;;;;;;;;;;4979845;28;20038;-86
2023/05/03 02:47:50;;;;;;;0.00;0.00;;;;;;;;;;4980096;28;20084;-86
2023/05/03 02:50:16;;;;;;;0.00;0.00;;;;;;;;;;4979914;28;20046;-86
2023/05/03 02:52:42;;;;;;;0.00;0.00;;;;;;;;;;4979447;28;20045;-86
2023/05/03 02:55:09;;;;;;;0.00;0.00;;;;;;;;;;4979528;28;20124;-86
2023/05/03 02:57:35;;;;;;;0.00;0.00;;;;;;;;;;4962911;28;20109;-86
2023/05/03 03:00:01;;;;;;;0.00;0.00;;;;;;;;;;4963240;28;20520;-86
2023/05/03 03:02:27;;;;;;;0.00;0.00;;;;;;;;;;4978897;28;20201;-86
2023/05/03 03:04:53;;;;;;;0.00;0.00;;;;;;;;;;4979156;28;20046;-86
2023/05/03 03:07:19;;;;;;;0.00;0.00;;;;;;;;;;4978875;28;20081;-87
2023/05/03 03:09:45;;;;;;;0.00;0.00;;;;;;;;;;4979013;28;20050;-86
2023/05/03 03:12:11;;;;;;;0.00;0.00;;;;;;;;;;4978695;28;20074;-86
2023/05/03 03:14:37;;;;;;;0.00;0.00;;;;;;;;;;4979224;28;20124;-86
2023/05/03 03:17:07;;;;;;;0.00;0.00;;;;;;;;;;4978760;28;20053;-86
2023/05/03 03:19:33;;;;;;;0.00;0.00;;;;;;;;;;4979153;28;20537;-86
2023/05/03 03:21:59;;;;;;;0.00;0.00;;;;;;;;;;4978601;28;20085;-86
2023/05/03 03:24:25;;;;;;;0.00;0.00;;;;;;;;;;4978793;28;20053;-85
2023/05/03 03:26:51;;;;;;;0.00;0.00;;;;;;;;;;4978502;28;20426;-86
2023/05/03 03:29:17;;;;;;;0.00;0.00;;;;;;;;;;4978801;28;20081;-86
2023/05/03 03:31:43;;;;;;;0.00;0.00;;;;;;;;;;4978615;28;20038;-86
2023/05/03 03:34:10;;;;;;;0.00;0.00;;;;;;;;;;4978305;28;20049;-87
2023/05/03 03:36:38;;;;;;;0.00;0.00;;;;;;;;;;4978849;28;20065;-87
2023/05/03 03:39:04;;;;;;;0.00;0.00;;;;;;;;;;4978363;28;20046;-86
2023/05/03 03:41:30;;;;;;;0.00;0.00;;;;;;;;;;4962783;28;20046;-86
2023/05/03 03:43:56;;;;;;;0.00;0.00;;;;;;;;;;4978028;28;20042;-86
2023/05/03 03:46:22;;;;;;;0.00;0.00;;;;;;;;;;4978355;28;20490;-86
2023/05/03 03:48:48;;;;;;;0.00;0.00;;;;;;;;;;4961811;28;20038;-87
2023/05/03 03:51:14;;;;;;;0.00;0.00;;;;;;;;;;4977402;28;20034;-87
2023/05/03 03:53:41;;;;;;;0.00;0.00;;;;;;;;;;4961465;28;20050;-87
2023/05/03 03:56:07;;;;;;;0.00;0.00;;;;;;;;;;4978409;28;20058;-87
2023/05/03 03:58:33;;;;;;;0.00;0.00;;;;;;;;;;4961725;28;20069;-86
2023/05/03 04:01:00;;;;;;;0.00;0.00;;;;;;;;;;4978263;28;20137;-86
2023/05/03 04:03:26;;;;;;;0.00;0.00;;;;;;;;;;4977754;28;20050;-87
2023/05/03 04:05:52;;;;;;;0.00;0.00;;;;;;;;;;4977943;28;20466;-87
2023/05/03 04:08:18;;;;;;;0.00;0.00;;;;;;;;;;4977888;28;20054;-87
2023/05/03 04:10:45;;;;;;;0.00;0.00;;;;;;;;;;4978261;28;20034;-86
2023/05/03 04:13:11;;;;;;;0.00;0.00;;;;;;;;;;4977700;28;20546;-85
2023/05/03 04:15:37;;;;;;;0.00;0.00;;;;;;;;;;4977866;28;20046;-87
2023/05/03 04:18:03;;;;;;;0.00;0.00;;;;;;;;;;4977523;28;20038;-86
2023/05/03 04:20:29;;;;;;;0.00;0.00;;;;;;;;;;4977926;28;20174;-87
2023/05/03 04:22:55;;;;;;;0.00;0.00;;;;;;;;;;4977696;28;20042;-87
2023/05/03 04:25:21;;;;;;;0.00;0.00;;;;;;;;;;4961950;28;20058;-87
2023/05/03 04:27:47;;;;;;;0.00;0.00;;;;;;;;;;4977346;28;20053;-87
2023/05/03 04:30:14;;;;;;;0.00;0.00;;;;;;;;;;4961321;28;20081;-87
2023/05/03 04:32:41;;;;;;;0.00;0.00;;;;;;;;;;4961069;28;20050;-87
2023/05/03 04:35:09;;;;;;;0.00;0.00;;;;;;;;;;4977545;28;20420;-87
2023/05/03 04:37:39;;;;;;;0.00;0.00;;;;;;;;;;4977723;28;20046;-87
2023/05/03 04:40:07;;;;;;;0.00;0.00;;;;;;;;;;4961505;28;20070;-87
2023/05/03 04:42:33;;;;;;;0.00;0.00;;;;;;;;;;4961290;28;20100;-87
2023/05/03 04:45:02;;;;;;;0.00;0.00;;;;;;;;;;4976979;28;20046;-86
2023/05/03 04:47:28;;;;;;;0.00;0.00;;;;;;;;;;4960999;28;20078;-87
2023/05/03 04:49:54;;;;;;;0.00;0.00;;;;;;;;;;4960790;28;20042;-88
2023/05/03 04:52:22;;;;;;;0.00;0.00;;;;;;;;;;4976875;28;20042;-87
2023/05/03 04:54:48;;;;;;;0.00;0.00;;;;;;;;;;4960943;28;20046;-87
2023/05/03 04:57:14;;;;;;;0.00;0.00;;;;;;;;;;4976888;28;20089;-86
2023/05/03 04:59:40;;;;;;;0.00;0.00;;;;;;;;;;4977079;28;20050;-86
2023/05/03 05:02:06;;;;;;;0.00;0.00;;;;;;;;;;4959648;28;20507;-87
2023/05/03 05:04:32;;;;;;;0.00;0.00;;;;;;;;;;4960466;28;20104;-87
2023/05/03 05:06:58;;;;;;;0.00;0.00;;;;;;;;;;4960636;28;20045;-86
2023/05/03 05:09:25;;;;;;;0.00;0.00;;;;;;;;;;4976392;28;20042;-86
2023/05/03 05:11:51;;;;;;;0.00;0.00;;;;;;;;;;4976754;28;20038;-86
2023/05/03 05:14:17;;;;;;;0.00;0.00;;;;;;;;;;4976237;28;20105;-86
2023/05/03 05:16:43;;;;;;;0.30;0.10;;;;;;;;;;4960606;28;20477;-86
2023/05/03 05:19:09;;;;;;;0.43;0.00;;;;;;;;;;4960113;28;20052;-87
2023/05/03 05:21:35;;;;;;;0.00;0.00;;;;;;;;;;4976501;28;20046;-86
2023/05/03 05:24:01;;;;;;;0.00;0.00;;;;;;;;;;4975945;28;20057;-86
2023/05/03 05:26:27;;;;;;;0.00;0.00;;;;;;;;;;4976305;28;20488;-86
2023/05/03 05:28:53;;;;;;;0.00;0.00;;;;;;;;;;4976042;28;20045;-86
2023/05/03 05:31:20;;;;;;;0.00;0.00;;;;;;;;;;4976219;28;20148;-86
2023/05/03 05:33:46;;;;;;;0.00;0.00;;;;;;;;;;4976088;28;20042;-86
2023/05/03 05:36:11;;;;;;;0.00;0.00;;;;;;;;;;4960106;28;20042;-86
2023/05/03 05:38:37;;;;;;;0.00;0.00;;;;;;;;;;4975946;28;20045;-86
2023/05/03 05:41:03;;;;;;;0.00;0.00;;;;;;;;;;4976278;28;20190;-87
2023/05/03 05:43:29;;;;;;;0.00;0.00;;;;;;;;;;4959467;28;20050;-87
2023/05/03 05:45:55;;;;;;;0.00;0.00;;;;;;;;;;4960128;28;20045;-86
2023/05/03 05:48:21;;;;;;;0.00;0.00;;;;;;;;;;4959777;28;20150;-86
2023/05/03 05:50:47;;;;;;;0.00;0.00;;;;;;;;;;4976232;28;20038;-87
2023/05/03 05:53:13;;;;;;;0.00;0.00;;;;;;;;;;4959751;28;20075;-86
2023/05/03 05:55:39;;;;;;;0.00;0.00;;;;;;;;;;4975921;28;20059;-87
2023/05/03 05:58:05;;;;;;;0.00;0.00;;;;;;;;;;4959504;28;20069;-87
2023/05/03 06:00:31;;;;;;;0.00;0.00;;;;;;;;;;4975388;28;20494;-87
2023/05/03 06:02:57;;;;;;;0.00;0.00;;;;;;;;;;4959513;28;20046;-86
2023/05/03 06:05:24;;;;;;;0.00;0.00;;;;;;;;;;4959600;28;20141;-87
2023/05/03 06:07:50;;;;;;;0.00;0.00;;;;;;;;;;4976101;28;20061;-87
2023/05/03 06:10:16;;;;;;;0.00;0.00;;;;;;;;;;4975448;28;20458;-87
2023/05/03 06:12:42;;;;;;;0.00;0.00;;;;;;;;;;4975568;28;20482;-86
2023/05/03 06:15:08;;;;;;;0.00;0.00;;;;;;;;;;4975235;28;20509;-86
2023/05/03 06:17:35;;;;;;;0.00;0.00;;;;;;;;;;4975721;28;20050;-86
2023/05/03 06:20:01;;;;;;;0.00;0.00;;;;;;;;;;4975469;28;20046;-87
2023/05/03 06:22:27;;;;;;;0.00;0.00;;;;;;;;;;4959413;28;20506;-87
2023/05/03 06:24:55;;;;;;;0.00;0.00;;;;;;;;;;4975443;28;20047;-87
2023/05/03 06:27:21;;;;;;;0.00;0.00;;;;;;;;;;4975732;28;20119;-87
2023/05/03 06:29:48;;;;;;;0.00;0.00;;;;;;;;;;4975938;28;20133;-87
2023/05/03 06:32:14;;;;;;;0.00;0.00;;;;;;;;;;4959367;28;20038;-86
2023/05/03 06:34:40;;;;;;;0.00;0.00;;;;;;;;;;4975343;28;20065;-86
2023/05/03 06:37:06;;;;;;;0.00;0.00;;;;;;;;;;4975562;28;20547;-86
2023/05/03 06:39:32;;;;;;;0.00;0.00;;;;;;;;;;4959430;28;20061;-86
2023/05/03 06:41:58;;;;;;;0.00;0.00;;;;;;;;;;4975402;28;20038;-87
2023/05/03 06:44:24;;;;;;;0.00;0.00;;;;;;;;;;4974837;28;20069;-87
2023/05/03 06:46:50;;;;;;;0.00;0.00;;;;;;;;;;4959208;28;20038;-86
2023/05/03 06:49:16;;;;;;;0.00;0.00;;;;;;;;;;4959001;28;20034;-89
2023/05/03 06:51:42;;;;;;;0.00;0.00;;;;;;;;;;4975700;28;20045;-88
2023/05/03 06:54:08;;;;;;;0.00;0.00;;;;;;;;;;4975323;28;20069;-87
2023/05/03 06:56:35;;;;;;;0.00;0.00;;;;;;;;;;4975414;28;20129;-88
2023/05/03 06:59:05;;;;;;;0.00;0.00;;;;;;;;;;4959450;28;20081;-88
2023/05/03 07:01:31;;;;;;;0.00;0.00;;;;;;;;;;4959353;28;20084;-86
2023/05/03 07:03:57;;;;;;;0.00;0.00;;;;;;;;;;4974895;28;20043;-87
2023/05/03 07:06:23;;;;;;;0.00;0.00;;;;;;;;;;4975432;28;20477;-86
2023/05/03 07:08:53;;;;;;;0.00;0.00;;;;;;;;;;4975266;28;20049;-86
2023/05/03 07:11:22;;;;;;;0.00;0.00;;;;;;;;;;4958817;28;20038;-86
2023/05/03 07:13:52;;;;;;;0.00;0.00;;;;;;;;;;4975323;28;20047;-86
2023/05/03 07:16:21;;;;;;;0.00;0.00;;;;;;;;;;4958793;28;20054;-87
2023/05/03 07:18:48;;;;;;;0.00;0.00;;;;;;;;;;4975235;28;20426;-86
2023/05/03 07:21:14;;;;;;;0.00;0.00;;;;;;;;;;4974781;28;20038;-86
2023/05/03 07:23:40;;;;;;;0.15;0.00;;;;;;;;;;4958686;28;20046;-87
2023/05/03 07:26:06;;;;;;;0.00;0.00;;;;;;;;;;4960382;28;20057;-87
2023/05/03 07:28:33;;;;;;;0.00;0.00;;;;;;;;;;4978692;28;20382;-88
2023/05/03 07:30:59;;;;;;;0.00;0.00;;;;;;;;;;4978322;28;20474;-87
2023/05/03 07:33:25;;;;;;;0.00;0.00;;;;;;;;;;4978510;28;20050;-86
2023/05/03 07:35:51;;;;;;;0.00;0.00;;;;;;;;;;4962531;28;20382;-86
2023/05/03 07:38:17;;;;;;;0.00;0.00;;;;;;;;;;4978821;28;20336;-86
2023/05/03 07:40:43;;;;;;;0.00;0.00;;;;;;;;;;4962434;28;20046;-86
2023/05/03 07:43:09;;;;;;;0.00;0.00;;;;;;;;;;4962566;28;20100;-88
2023/05/03 07:45:37;;;;;;;0.00;0.00;;;;;;;;;;4978206;28;20035;-87
2023/05/03 07:48:03;;;;;;;0.00;0.00;;;;;;;;;;4962448;28;20034;-88
2023/05/03 07:50:30;;;;;;;0.00;0.00;;;;;;;;;;4962146;28;20049;-88
2023/05/03 07:52:56;;;;;;;0.15;0.00;;;;;;;;;;4963130;28;20042;-88
2023/05/03 07:55:22;;;;;;;0.00;0.00;;;;;;;;;;4962283;28;20041;-88
2023/05/03 07:57:48;;;;;;;0.00;0.00;;;;;;;;;;4962000;28;20194;-87
2023/05/03 08:00:16;;;;;;;0.00;0.00;;;;;;;;;;4962058;28;20213;-88
2023/05/03 08:02:42;;;;;;;0.00;0.00;;;;;;;;;;4962472;28;20042;-89
2023/05/03 08:05:10;;;;;;;0.00;0.00;;;;;;;;;;4978025;28;20042;-90
2023/05/03 08:07:36;;;;;;;0.00;0.00;;;;;;;;;;4978767;28;20050;-89
2023/05/03 08:10:03;;;;;;;0.00;0.00;;;;;;;;;;4964050;28;20088;-89
2023/05/03 08:12:29;;;;;;;0.00;0.00;;;;;;;;;;4979613;28;20125;-91
2023/05/03 08:14:55;;;;;;;0.00;0.00;;;;;;;;;;4962907;28;20104;-89
2023/05/03 08:17:22;;;;;;;0.00;0.00;;;;;;;;;;4962388;28;20042;-89
2023/05/03 08:19:51;;;;;;;0.00;0.00;;;;;;;;;;4980484;28;20046;-89
2023/05/03 08:22:25;;;;;;;0.00;0.00;;;;;;;;;;4966449;28;20520;-93
2023/05/03 08:24:55;;;;;;;0.00;0.00;;;;;;;;;;4979900;28;20078;-88
2023/05/03 08:27:23;;;;;;;0.00;0.00;;;;;;;;;;4963702;28;20035;-90
2023/05/03 08:29:49;;;;;;;0.00;0.00;;;;;;;;;;4962733;28;20050;-90
2023/05/03 08:32:15;;;;;;;0.00;0.00;;;;;;;;;;4978895;28;20449;-89
2023/05/03 08:34:41;;;;;;;0.00;0.00;;;;;;;;;;4962255;28;20046;-90
2023/05/03 08:37:07;;;;;;;0.00;0.00;;;;;;;;;;4961791;28;20050;-89
2023/05/03 08:39:33;;;;;;;0.00;0.00;;;;;;;;;;4979399;28;20046;-89
2023/05/03 08:42:00;;;;;;;0.00;0.00;;;;;;;;;;4978371;28;20038;-90
2023/05/03 08:44:28;;;;;;;0.00;0.00;;;;;;;;;;4961290;28;20073;-88
2023/05/03 08:46:54;;;;;;;0.00;0.00;;;;;;;;;;4977123;28;20042;-89
2023/05/03 08:49:20;;;;;;;0.00;0.00;;;;;;;;;;4977603;28;20042;-90
2023/05/03 08:51:48;;;;;;;0.00;0.00;;;;;;;;;;4977335;28;20038;-89
2023/05/03 08:54:15;;;;;;;0.00;0.00;;;;;;;;;;4961754;28;20042;-88
2023/05/03 08:56:42;;;;;;;0.00;0.00;;;;;;;;;;4960705;28;20042;-89
2023/05/03 08:59:08;;;;;;;0.00;0.00;;;;;;;;;;4961200;28;20084;-88
2023/05/03 09:01:41;;;;;;;0.00;0.00;;;;;;;;;;4977283;28;20046;-88
2023/05/03 09:04:07;;;;;;;0.00;0.00;;;;;;;;;;4960640;28;20043;-88
2023/05/03 09:06:34;;;;;;;0.00;0.00;;;;;;;;;;4960861;28;20335;-87
2023/05/03 09:09:04;;;;;;;0.00;0.00;;;;;;;;;;4976803;28;20039;-88
2023/05/03 09:11:30;;;;;;;0.00;0.00;;;;;;;;;;4960652;28;20046;-88
2023/05/03 09:14:09;;;;;;;0.00;0.00;;;;;;;;;;4976652;28;20382;-88
2023/05/03 09:16:35;;;;;;;0.00;0.00;;;;;;;;;;4978674;28;20401;-86
2023/05/03 09:19:03;;;;;;;0.00;0.00;;;;;;;;;;4976711;28;20137;-87
2023/05/03 09:21:32;;;;;;;0.00;0.00;;;;;;;;;;4976289;28;20084;-88
2023/05/03 09:23:58;;;;;;;0.00;0.00;;;;;;;;;;4976335;28;20050;-89
2023/05/03 09:26:32;;;;;;;0.00;0.00;;;;;;;;;;4976321;28;20078;-88
2023/05/03 09:29:02;;;;;;;0.00;0.00;;;;;;;;;;4960341;28;20129;-88
2023/05/03 09:31:29;;;;;;;0.00;0.00;;;;;;;;;;4976208;28;20129;-88
2023/05/03 09:33:56;;;;;;;0.00;0.00;;;;;;;;;;4960238;28;20046;-87
2023/05/03 09:36:22;;;;;;;0.00;0.00;;;;;;;;;;4975800;28;20497;-88
2023/05/03 09:38:48;;;;;;;0.00;0.00;;;;;;;;;;4976445;28;20046;-87
2023/05/03 09:41:15;;;;;;;0.00;0.00;;;;;;;;;;4976129;28;20141;-88
2023/05/03 09:43:51;;;;;;;0.00;0.00;;;;;;;;;;4959816;28;20053;-87
2023/05/03 09:46:17;;;;;;;0.00;0.00;;;;;;;;;;4959792;28;20038;-88
2023/05/03 09:48:43;;;;;;;0.00;0.00;;;;;;;;;;4959923;28;20125;-88
2023/05/03 09:51:10;;;;;;;0.00;0.00;;;;;;;;;;4976134;28;20054;-88
2023/05/03 09:53:37;;;;;;;0.00;0.00;;;;;;;;;;4976125;28;20046;-88
2023/05/03 09:56:04;;;;;;;0.00;0.00;;;;;;;;;;4976319;28;20096;-83
2023/05/03 09:58:30;;;;;;;0.00;0.00;;;;;;;;;;4959770;28;20062;-89
2023/05/03 10:00:56;;;;;;;0.00;0.00;;;;;;;;;;4976043;28;20056;-87
2023/05/03 10:03:26;;;;;;;0.00;0.00;;;;;;;;;;4976256;28;20050;-88
2023/05/03 10:05:52;;;;;;;0.00;0.00;;;;;;;;;;4959864;28;20050;-88
2023/05/03 10:08:23;;;;;;;0.00;0.00;;;;;;;;;;4960034;28;20038;-89
2023/05/03 10:10:52;;;;;;;0.00;0.00;;;;;;;;;;4975818;28;20078;-88
2023/05/03 10:13:18;;;;;;;0.00;0.00;;;;;;;;;;4959955;28;20069;-88
2023/05/03 10:15:45;;;;;;;0.00;0.00;;;;;;;;;;4976007;28;20074;-88
2023/05/03 10:18:13;;;;;;;0.00;0.00;;;;;;;;;;4975915;28;20264;-89
2023/05/03 10:20:41;;;;;;;0.00;0.00;;;;;;;;;;4959885;28;20510;-90
2023/05/03 10:23:10;;;;;;;0.00;0.00;;;;;;;;;;4975449;28;20053;-88
2023/05/03 10:25:37;;;;;;;0.00;0.00;;;;;;;;;;4975930;28;20045;-88
2023/05/03 10:28:03;;;;;;;0.00;0.00;;;;;;;;;;4959237;28;20129;-88
2023/05/03 10:30:36;;;;;;;0.00;0.00;;;;;;;;;;4975574;28;20532;-88
2023/05/03 10:33:11;;;;;;;0.00;0.00;;;;;;;;;;4974982;28;20038;-88
2023/05/03 10:35:53;;;;;;;0.15;0.08;;;;;;;;;;4959287;28;20161;-88
2023/05/03 10:38:23;;;;;;;0.00;0.00;;;;;;;;;;4975431;28;20048;-90
2023/05/03 10:40:49;;;;;;;0.00;0.00;;;;;;;;;;4959763;28;20125;-88
2023/05/03 10:43:31;;;;;;;0.00;0.00;;;;;;;;;;4959004;28;20490;-89
2023/05/03 10:45:57;;;;;;;0.00;0.00;;;;;;;;;;4959388;28;20039;-89
2023/05/03 10:48:24;;;;;;;0.00;0.00;;;;;;;;;;4975453;28;20132;-90
2023/05/03 10:50:51;;;;;;;0.00;0.00;;;;;;;;;;4975994;28;20591;-89
2023/05/03 10:53:35;;;;;;;0.00;0.00;;;;;;;;;;4959564;28;20112;-88
2023/05/03 10:56:07;;;;;;;0.00;0.00;;;;;;;;;;4959270;28;20064;-88
2023/05/03 10:58:37;;;;;;;0.00;0.00;;;;;;;;;;4958866;28;20109;-87
2023/05/03 11:01:08;;;;;;;0.00;0.00;;;;;;;;;;4978135;28;20045;-89
2023/05/03 11:03:41;;;;;;;0.00;0.00;;;;;;;;;;4978677;28;20043;-88
2023/05/03 11:06:08;;;;;;;0.00;0.00;;;;;;;;;;4964238;28;20045;-91
2023/05/03 11:08:36;;;;;;;0.00;0.00;;;;;;;;;;4963143;28;20050;-88
2023/05/03 11:11:08;;;;;;;0.00;0.00;;;;;;;;;;4978698;28;20038;-88
2023/05/03 11:13:37;;;;;;;0.00;0.00;;;;;;;;;;4978629;28;20042;-88
2023/05/03 11:16:07;;;;;;;0.00;0.00;;;;;;;;;;4978837;28;20206;-87
2023/05/03 11:18:33;;;;;;;0.00;0.00;;;;;;;;;;4962287;28;20053;-88
2023/05/03 11:20:59;;;;;;;0.00;0.00;;;;;;;;;;4962917;28;20038;-88
2023/05/03 11:23:27;;;;;;;0.00;0.00;;;;;;;;;;4978356;28;20047;-89
2023/05/03 11:25:52;;;;;;;0.00;0.00;;;;;;;;;;4979055;28;20089;-89
2023/05/03 11:28:18;;;;;;;0.00;0.00;;;;;;;;;;4964363;28;20062;-90
2023/05/03 11:30:46;;;;;;;0.00;0.00;;;;;;;;;;4978700;28;20034;-89
2023/05/03 11:33:12;;;;;;;0.00;0.00;;;;;;;;;;4978490;28;20057;-89
2023/05/03 11:35:38;;;;;;;0.00;0.00;;;;;;;;;;4962804;28;20557;-90
2023/05/03 11:38:04;;;;;;;0.00;0.00;;;;;;;;;;4978987;28;20114;-91
2023/05/03 11:40:30;;;;;;;0.00;0.00;;;;;;;;;;4979343;28;20050;-90
2023/05/03 11:42:58;;;;;;;0.00;0.00;;;;;;;;;;4962530;28;20042;-89
2023/05/03 11:45:44;;;;;;;0.00;0.00;;;;;;;;;;4963481;28;20450;-90
2023/05/03 11:48:14;;;;;;;0.00;0.00;;;;;;;;;;4962800;28;20121;-90
2023/05/03 11:50:43;;;;;;;0.00;0.00;;;;;;;;;;4979286;28;20039;-92
2023/05/03 11:53:10;;;;;;;0.00;0.00;;;;;;;;;;4962609;28;20053;-89
2023/05/03 11:55:38;;;;;;;0.00;0.00;;;;;;;;;;4962654;28;20035;-89
2023/05/03 11:58:04;;;;;;;0.00;0.00;;;;;;;;;;4977957;28;20101;-90
2023/05/03 12:00:30;;;;;;;0.00;0.00;;;;;;;;;;4978537;28;20046;-89
2023/05/03 12:02:58;;;;;;;0.00;0.00;;;;;;;;;;4962108;28;20442;-89
2023/05/03 12:05:24;;;;;;;0.00;0.00;;;;;;;;;;4978362;28;20084;-90
2023/05/03 12:07:51;;;;;;;0.00;0.00;;;;;;;;;;4978274;28;20470;-89
2023/05/03 12:10:18;;;;;;;0.00;0.00;;;;;;;;;;4978459;28;20486;-87
2023/05/03 12:12:55;;;;;;;0.00;0.00;;;;;;;;;;4977807;28;20038;-90
2023/05/03 12:15:34;;;;;;;0.00;0.00;;;;;;;;;;4962163;28;20459;-90
2023/05/03 12:18:01;;;;;;;0.00;0.00;;;;;;;;;;4977855;28;20121;-89
2023/05/03 12:20:31;;;;;;;0.00;0.00;;;;;;;;;;4962303;28;20038;-90
2023/05/03 12:23:00;;;;;;;0.00;0.00;;;;;;;;;;4961785;28;20054;-85
2023/05/03 12:25:26;;;;;;;0.00;0.00;;;;;;;;;;4961737;28;20042;-89
2023/05/03 12:27:53;;;;;;;0.00;0.00;;;;;;;;;;4994561;28;20055;-88
2023/05/03 12:30:20;;;;;;;0.00;0.00;;;;;;;;;;4961960;28;20053;-89
2023/05/03 12:32:46;;;;;;;0.00;0.00;;;;;;;;;;4977650;28;20149;-88
2023/05/03 12:35:31;;;;;;;0.00;0.00;;;;;;;;;;4961856;28;20104;-89
2023/05/03 12:38:16;;;;;;;0.00;0.00;;;;;;;;;;4960335;28;20132;-89
2023/05/03 13:10:13;;;;;;;0.00;0.00;;;;;;;;;;4973093;28;20061;-89
2023/05/03 13:12:39;;;;;;;0.00;0.00;;;;;;;;;;4973722;28;20066;-89
2023/05/03 13:15:06;;;;;;;0.00;0.00;;;;;;;;;;4973694;28;20043;-89
2023/05/03 13:17:32;;;;;;;0.00;0.00;;;;;;;;;;4973895;28;20154;-89
2023/05/03 13:19:58;;;;;;;0.00;0.00;;;;;;;;;;4957308;28;20077;-89
2023/05/03 13:22:24;;;;;;;0.10;0.10;;;;;;;;;;4974412;28;20374;-90
2023/05/03 13:24:51;;;;;;;0.00;0.00;;;;;;;;;;4972845;28;20074;-90
2023/05/03 13:27:17;;;;;;;0.00;0.00;;;;;;;;;;4974423;28;20090;-89
2023/05/03 13:29:43;;;;;;;0.00;0.00;;;;;;;;;;4973654;28;20039;-89
2023/05/03 13:32:09;;;;;;;0.00;0.00;;;;;;;;;;4973893;28;20109;-89
2023/05/03 13:34:35;;;;;;;0.00;0.00;;;;;;;;;;4957250;28;20066;-89
2023/05/03 13:37:03;;;;;;;0.00;0.00;;;;;;;;;;4958399;28;20042;-90
2023/05/03 13:39:28;;;;;;;0.00;0.00;;;;;;;;;;4973574;28;20090;-88
2023/05/03 13:41:54;;;;;;;0.00;0.00;;;;;;;;;;4973338;28;20049;-89
2023/05/03 13:44:24;;;;;;;0.00;0.00;;;;;;;;;;4957792;28;20073;-94
2023/05/03 13:46:51;;;;;;;0.00;0.00;;;;;;;;;;4975888;28;20436;-88
2023/05/03 13:49:17;;;;;;;0.00;0.00;;;;;;;;;;4957156;28;20074;-89
2023/05/03 13:51:43;;;;;;;0.00;0.00;;;;;;;;;;4972874;28;20347;-88
2023/05/03 13:54:09;;;;;;;0.00;0.00;;;;;;;;;;4973735;28;20042;-89
2023/05/03 13:56:35;;;;;;;0.00;0.00;;;;;;;;;;4957462;28;20097;-89
2023/05/03 13:59:01;;;;;;;0.00;0.00;;;;;;;;;;4972740;28;20050;-88
2023/05/03 14:01:28;;;;;;;0.00;0.00;;;;;;;;;;4973089;28;20126;-88
2023/05/03 14:03:54;;;;;;;0.00;0.00;;;;;;;;;;4972722;28;20429;-90
2023/05/03 14:06:24;;;;;;;0.00;0.00;;;;;;;;;;4956490;28;20438;-89
2023/05/03 14:08:53;;;;;;;0.00;0.00;;;;;;;;;;4973043;28;20051;-88
2023/05/03 14:11:20;;;;;;;0.03;0.00;;;;;;;;;;4972561;28;20051;-89
2023/05/03 14:13:46;;;;;;;0.00;0.00;;;;;;;;;;4956849;28;20051;-89
2023/05/03 14:16:16;;;;;;;0.00;0.00;;;;;;;;;;4956880;28;20066;-90
2023/05/03 14:18:42;;;;;;;0.00;0.00;;;;;;;;;;4972960;28;20401;-88
2023/05/03 14:21:09;;;;;;;0.00;0.00;;;;;;;;;;4956474;28;20471;-91
2023/05/03 14:23:35;;;;;;;0.00;0.00;;;;;;;;;;4972759;28;20050;-88
2023/05/03 14:26:01;;;;;;;0.00;0.00;;;;;;;;;;4956671;28;20398;-89
2023/05/03 14:28:27;;;;;;;0.00;0.00;;;;;;;;;;4972549;28;20045;-87
2023/05/03 14:30:53;;;;;;;0.00;0.00;;;;;;;;;;4956261;28;20057;-88
2023/05/03 14:33:20;;;;;;;0.00;0.00;;;;;;;;;;4972589;28;20043;-87
2023/05/03 14:35:46;;;;;;;0.00;0.00;;;;;;;;;;4974691;28;20066;-88
2023/05/03 14:38:13;;;;;;;0.00;0.00;;;;;;;;;;4960475;28;20082;-87
2023/05/03 14:40:40;;;;;;;0.00;0.00;;;;;;;;;;4960068;28;20034;-87
2023/05/03 14:43:07;;;;;;;0.00;0.00;;;;;;;;;;4960122;28;20085;-87
2023/05/03 14:45:33;;;;;;;0.00;0.00;;;;;;;;;;4976236;28;20117;-86
2023/05/03 14:47:59;;;;;;;0.00;0.00;;;;;;;;;;4976341;28;20035;-87
2023/05/03 14:50:25;;;;;;;0.00;0.00;;;;;;;;;;4975984;28;20042;-87
2023/05/03 14:52:51;;;;;;;0.00;0.00;;;;;;;;;;4959989;28;20043;-88
2023/05/03 14:55:17;;;;;;;0.00;0.00;;;;;;;;;;4976025;28;20050;-87
2023/05/03 14:57:43;;;;;;;0.00;0.00;;;;;;;;;;4976194;28;20547;-87
2023/05/03 15:00:13;;;;;;;0.00;0.00;;;;;;;;;;4976266;28;20046;-87
2023/05/03 15:02:40;;;;;;;0.00;0.00;;;;;;;;;;4977394;28;20127;-87
2023/05/03 15:05:06;;;;;;;0.00;0.00;;;;;;;;;;4977328;28;20046;-87
2023/05/03 15:07:33;;;;;;;0.00;0.00;;;;;;;;;;4964456;28;20393;-88
2023/05/03 15:10:02;;;;;;;0.00;0.00;;;;;;;;;;4981694;28;20389;-87
2023/05/03 15:12:29;;;;;;;0.00;0.00;;;;;;;;;;4961436;28;20043;-88
2023/05/03 15:14:55;;;;;;;0.00;0.00;;;;;;;;;;4960168;28;20225;-88